Time;durP1;ratioP1;P1;durP2;ratioP2;P2;SDS_P1;SDS_P2;PMS_P1;PMS_P2;Temp;Humidity;BMP_temperature;BMP_pressure;BME280_temperature;BME280_humidity;BME280_pressure;Samples;Min_cycle;Max_cycle;Signal;HPM_P1;HPM_P2
2024/03/20 00:00:54;;;;;;;50.08;19.35;;;2.60;99.90;;;;;;4915379;28;20063;-80
2024/03/20 00:03:21;;;;;;;40.85;18.60;;;2.50;99.90;;;;;;4944222;28;20248;-79
2024/03/20 00:05:49;;;;;;;40.72;17.98;;;2.50;99.90;;;;;;4929716;28;20618;-79
2024/03/20 00:08:16;;;;;;;48.42;18.05;;;2.50;99.90;;;;;;4944187;28;20490;-79
2024/03/20 00:10:46;;;;;;;46.17;18.52;;;2.50;99.90;;;;;;4936549;29;20051;-78
2024/03/20 00:13:13;;;;;;;45.67;20.50;;;2.50;99.90;;;;;;4931844;28;20564;-79
2024/03/20 00:15:40;;;;;;;49.33;18.38;;;2.50;99.90;;;;;;4964659;28;20043;-79
2024/03/20 00:18:08;;;;;;;44.58;19.92;;;2.50;99.90;;;;;;4933939;28;20055;-78
2024/03/20 00:20:36;;;;;;;47.83;18.35;;;2.40;99.90;;;;;;4946248;28;20048;-80
2024/03/20 00:23:03;;;;;;;51.20;19.83;;;2.40;99.90;;;;;;4928051;28;20035;-79
2024/03/20 00:25:31;;;;;;;51.70;19.70;;;2.40;99.90;;;;;;4930948;29;20513;-78
2024/03/20 00:28:00;;;;;;;44.97;17.40;;;2.40;99.90;;;;;;4944924;28;20467;-80
2024/03/20 00:30:27;;;;;;;45.28;18.15;;;2.30;99.90;;;;;;4946109;28;20040;-74
2024/03/20 00:32:54;;;;;;;47.92;19.13;;;2.40;99.90;;;;;;4946426;28;20050;-74
2024/03/20 00:35:22;;;;;;;45.28;17.60;;;2.40;99.90;;;;;;4936438;28;20058;-73
2024/03/20 00:37:49;;;;;;;41.30;17.63;;;2.40;99.90;;;;;;4923111;28;20048;-74
2024/03/20 00:40:16;;;;;;;44.05;17.63;;;2.30;99.90;;;;;;4940628;28;20134;-75
2024/03/20 00:42:44;;;;;;;42.22;16.80;;;2.30;99.90;;;;;;4962134;28;20036;-74
2024/03/20 00:45:12;;;;;;;45.60;19.25;;;2.30;99.90;;;;;;4925670;28;20071;-77
2024/03/20 00:47:40;;;;;;;47.63;18.85;;;2.30;99.90;;;;;;4944294;28;20494;-74
2024/03/20 00:50:08;;;;;;;49.72;18.63;;;2.30;99.90;;;;;;4932232;28;20043;-74
2024/03/20 00:52:35;;;;;;;43.53;18.40;;;2.20;99.90;;;;;;4929502;29;20040;-74
2024/03/20 00:55:03;;;;;;;48.35;19.83;;;2.20;99.90;;;;;;4925122;28;20047;-73
2024/03/20 00:57:30;;;;;;;47.60;19.73;;;2.20;99.90;;;;;;4945056;28;20035;-74
2024/03/20 00:59:58;;;;;;;50.03;18.83;;;2.20;99.90;;;;;;4929702;28;20518;-75
2024/03/20 01:02:27;;;;;;;50.17;19.50;;;2.20;99.90;;;;;;4929093;29;20042;-76
2024/03/20 01:04:54;;;;;;;51.65;19.35;;;2.10;99.90;;;;;;4931824;28;20103;-74
2024/03/20 01:07:21;;;;;;;48.38;20.40;;;2.20;99.90;;;;;;4941518;28;21568;-73
2024/03/20 01:09:49;;;;;;;50.50;19.63;;;2.20;99.90;;;;;;4925389;28;20054;-73
2024/03/20 01:12:17;;;;;;;50.67;19.70;;;2.20;99.90;;;;;;4930990;28;20574;-74
2024/03/20 01:14:46;;;;;;;45.17;17.80;;;2.10;99.90;;;;;;4943854;28;20048;-74
2024/03/20 01:17:15;;;;;;;59.45;19.90;;;2.10;99.90;;;;;;4926047;28;20039;-75
2024/03/20 01:19:44;;;;;;;50.92;21.52;;;2.10;99.90;;;;;;4938576;28;20062;-74
2024/03/20 01:22:12;;;;;;;52.40;20.67;;;2.00;99.90;;;;;;4913956;29;20443;-74
2024/03/20 01:24:39;;;;;;;46.00;19.65;;;2.00;99.90;;;;;;4946530;28;20052;-74
2024/03/20 01:27:07;;;;;;;48.30;19.00;;;2.10;99.90;;;;;;4943148;28;20063;-73
2024/03/20 01:29:34;;;;;;;54.80;22.38;;;1.90;99.90;;;;;;4929969;29;20043;-75
2024/03/20 01:32:02;;;;;;;48.95;19.45;;;2.00;99.90;;;;;;4929880;28;20093;-73
2024/03/20 01:34:29;;;;;;;48.47;18.92;;;1.90;99.90;;;;;;4925575;29;20047;-75
2024/03/20 01:36:59;;;;;;;47.65;19.45;;;1.90;99.90;;;;;;4931368;28;20111;-74
2024/03/20 01:39:26;;;;;;;46.97;19.52;;;1.90;99.90;;;;;;4943116;28;20047;-75
2024/03/20 01:41:54;;;;;;;53.65;20.85;;;1.90;99.90;;;;;;4947664;28;20043;-76
2024/03/20 01:44:22;;;;;;;56.55;21.13;;;1.90;99.90;;;;;;4944152;28;20106;-74
2024/03/20 01:46:49;;;;;;;49.85;20.25;;;1.90;99.90;;;;;;4914419;28;20043;-75
2024/03/20 01:49:17;;;;;;;54.45;20.08;;;1.90;99.90;;;;;;4940787;28;20043;-74
2024/03/20 01:51:45;;;;;;;50.75;20.08;;;1.90;99.90;;;;;;4956074;28;20099;-74
2024/03/20 01:54:16;;;;;;;53.33;19.80;;;1.80;99.90;;;;;;4922460;28;20048;-74
2024/03/20 01:56:43;;;;;;;54.47;20.85;;;1.80;99.90;;;;;;4943077;28;20478;-74
2024/03/20 01:59:11;;;;;;;52.95;20.38;;;1.80;99.90;;;;;;4941090;28;20043;-74
2024/03/20 02:01:38;;;;;;;50.38;20.70;;;1.80;99.90;;;;;;4938465;28;20106;-74
2024/03/20 02:04:06;;;;;;;50.88;20.05;;;1.80;99.90;;;;;;4956350;28;20422;-74
2024/03/20 02:06:34;;;;;;;44.72;20.45;;;1.80;99.90;;;;;;4954716;28;20051;-75
2024/03/20 02:09:03;;;;;;;47.00;18.35;;;1.70;99.90;;;;;;4931187;28;20043;-75
2024/03/20 02:11:32;;;;;;;47.92;18.27;;;1.70;99.90;;;;;;4954721;28;20102;-74
2024/03/20 02:14:00;;;;;;;48.55;18.83;;;1.70;99.90;;;;;;4922197;29;20043;-75
2024/03/20 02:16:28;;;;;;;48.00;18.55;;;1.60;99.90;;;;;;4925126;29;20054;-74
2024/03/20 02:18:57;;;;;;;45.47;17.40;;;2.50;99.90;;;;;;4927155;28;20043;-75
2024/03/20 02:21:26;;;;;;;43.72;17.38;;;1.70;99.90;;;;;;4943104;28;20035;-74
2024/03/20 02:23:53;;;;;;;48.78;19.38;;;1.60;99.90;;;;;;4955267;28;20039;-75
2024/03/20 02:26:21;;;;;;;46.90;17.58;;;1.60;99.90;;;;;;4909461;29;20601;-74
2024/03/20 02:28:49;;;;;;;40.35;17.30;;;1.60;99.90;;;;;;4925464;28;20562;-74
2024/03/20 02:31:16;;;;;;;42.08;16.88;;;1.60;99.90;;;;;;4939182;28;20054;-75
2024/03/20 02:33:44;;;;;;;40.25;15.90;;;1.60;99.90;;;;;;4953604;28;20171;-74
2024/03/20 02:36:11;;;;;;;44.20;16.65;;;1.60;99.90;;;;;;4927413;28;20921;-76
2024/03/20 02:38:41;;;;;;;38.78;15.70;;;1.50;99.90;;;;;;4929569;28;20046;-75
2024/03/20 02:41:09;;;;;;;47.08;17.83;;;1.60;99.90;;;;;;4956004;28;20046;-74
2024/03/20 02:43:36;;;;;;;41.83;18.02;;;1.50;99.90;;;;;;4931624;28;20051;-74
2024/03/20 02:46:04;;;;;;;46.50;17.60;;;1.40;99.90;;;;;;4927059;28;20525;-74
2024/03/20 02:48:34;;;;;;;41.70;16.80;;;1.50;99.90;;;;;;4945028;28;20138;-74
2024/03/20 02:51:02;;;;;;;39.83;16.33;;;1.50;99.90;;;;;;4943124;28;20035;-74
2024/03/20 02:53:30;;;;;;;49.38;18.08;;;1.50;99.90;;;;;;4947319;28;20589;-74
2024/03/20 02:55:58;;;;;;;40.90;16.70;;;1.50;99.90;;;;;;4931783;28;20046;-74
2024/03/20 02:58:26;;;;;;;44.35;17.10;;;1.50;99.90;;;;;;4927426;29;20047;-74
2024/03/20 03:00:54;;;;;;;41.00;17.08;;;1.40;99.90;;;;;;4943742;28;20054;-74
2024/03/20 03:03:21;;;;;;;42.70;17.85;;;1.40;99.90;;;;;;4928438;28;20047;-76
2024/03/20 03:05:49;;;;;;;42.83;16.00;;;1.40;99.90;;;;;;4923930;29;20388;-74
2024/03/20 03:08:16;;;;;;;40.58;16.33;;;1.40;99.90;;;;;;4954636;28;20088;-74
2024/03/20 03:10:43;;;;;;;38.80;17.45;;;1.40;99.90;;;;;;4956275;28;20059;-74
2024/03/20 03:13:12;;;;;;;43.97;16.63;;;1.30;99.90;;;;;;4948395;28;20044;-74
2024/03/20 03:15:40;;;;;;;52.65;17.90;;;1.30;99.90;;;;;;4942912;28;20578;-74
2024/03/20 03:18:06;;;;;;;41.05;17.02;;;1.30;99.90;;;;;;4948252;28;20039;-76
2024/03/20 03:20:34;;;;;;;36.88;15.82;;;1.30;99.90;;;;;;4947126;28;20044;-75
2024/03/20 03:23:02;;;;;;;45.28;15.63;;;1.30;99.90;;;;;;4923962;29;20065;-74
2024/03/20 03:25:29;;;;;;;40.45;16.52;;;1.30;99.90;;;;;;4939510;28;20506;-74
2024/03/20 03:27:57;;;;;;;43.40;16.05;;;1.30;99.90;;;;;;4942797;28;20039;-74
2024/03/20 03:30:26;;;;;;;39.63;15.60;;;1.30;99.90;;;;;;4958304;28;20579;-73
2024/03/20 03:32:53;;;;;;;42.85;16.73;;;1.30;99.90;;;;;;4923656;28;20052;-74
2024/03/20 03:35:23;;;;;;;37.55;15.18;;;1.20;99.90;;;;;;4937291;28;20529;-74
2024/03/20 03:37:50;;;;;;;44.80;14.90;;;1.10;99.90;;;;;;4940593;28;20058;-74
2024/03/20 03:40:18;;;;;;;38.33;14.93;;;1.20;99.90;;;;;;4941202;28;20398;-74
2024/03/20 03:42:45;;;;;;;33.67;15.32;;;1.20;99.90;;;;;;4924264;28;20479;-74
2024/03/20 03:45:13;;;;;;;41.80;16.52;;;1.20;99.90;;;;;;4921222;28;20050;-75
2024/03/20 03:47:43;;;;;;;42.40;16.75;;;1.20;99.90;;;;;;4946747;28;20071;-74
2024/03/20 03:50:10;;;;;;;37.08;16.00;;;1.10;99.90;;;;;;4942086;28;20043;-75
2024/03/20 03:52:37;;;;;;;35.47;15.30;;;1.10;99.90;;;;;;4937009;28;20082;-75
2024/03/20 03:55:06;;;;;;;37.47;14.68;;;1.10;99.90;;;;;;4943458;28;20426;-74
2024/03/20 03:57:33;;;;;;;39.75;15.15;;;1.10;99.90;;;;;;4928533;28;20054;-75
2024/03/20 04:00:01;;;;;;;41.17;15.48;;;1.10;99.90;;;;;;4929616;28;20039;-74
2024/03/20 04:02:36;;;;;;;39.30;14.80;;;1.10;99.90;;;;;;4956531;28;20043;-83
2024/03/20 04:05:05;;;;;;;37.67;15.60;;;1.10;99.90;;;;;;4946950;28;20044;-81
2024/03/20 04:07:33;;;;;;;37.80;14.00;;;1.10;99.90;;;;;;4934462;29;20491;-81
2024/03/20 04:10:01;;;;;;;40.15;16.30;;;1.00;99.90;;;;;;4930858;29;20513;-83
2024/03/20 04:12:28;;;;;;;41.92;14.90;;;0.90;99.90;;;;;;4944338;28;20043;-83
2024/03/20 04:14:56;;;;;;;38.97;16.58;;;0.90;99.90;;;;;;4933977;29;20063;-82
2024/03/20 04:17:23;;;;;;;42.25;18.20;;;1.00;99.90;;;;;;4945550;28;20035;-81
2024/03/20 04:19:51;;;;;;;38.17;16.88;;;1.80;99.90;;;;;;4950272;28;20063;-82
2024/03/20 04:22:19;;;;;;;49.38;18.15;;;0.30;99.90;;;;;;4946302;28;20134;-82
2024/03/20 04:24:47;;;;;;;41.38;16.48;;;0.90;99.90;;;;;;4959838;28;20051;-82
2024/03/20 04:27:15;;;;;;;39.30;16.48;;;1.00;99.90;;;;;;4930049;28;20435;-81
2024/03/20 04:29:42;;;;;;;35.25;14.85;;;-0.20;99.90;;;;;;4936688;28;20085;-82
2024/03/20 04:32:11;;;;;;;42.90;16.58;;;0.90;99.90;;;;;;4932658;28;20065;-81
2024/03/20 04:34:38;;;;;;;33.67;15.15;;;1.20;99.90;;;;;;4950764;28;20136;-82
2024/03/20 04:37:06;;;;;;;39.28;15.38;;;1.00;99.90;;;;;;4963044;28;20074;-82
2024/03/20 04:39:35;;;;;;;42.38;15.75;;;1.50;99.90;;;;;;4928165;28;20104;-84
2024/03/20 04:42:04;;;;;;;36.53;14.43;;;0.90;99.90;;;;;;4929333;28;20067;-82
2024/03/20 04:44:31;;;;;;;36.60;16.02;;;0.90;99.90;;;;;;4951486;28;20052;-82
2024/03/20 04:46:59;;;;;;;38.10;14.50;;;0.80;99.90;;;;;;4933833;29;20443;-82
2024/03/20 04:49:26;;;;;;;46.38;15.38;;;0.80;99.90;;;;;;4955376;28;20422;-82
2024/03/20 04:51:54;;;;;;;43.35;17.42;;;0.80;99.90;;;;;;4936724;28;20101;-82
2024/03/20 04:54:21;;;;;;;39.45;14.63;;;-0.50;99.90;;;;;;4918698;28;20126;-78
2024/03/20 04:56:50;;;;;;;42.22;15.95;;;1.10;99.90;;;;;;4945879;28;20376;-82
2024/03/20 04:59:18;;;;;;;41.55;16.98;;;-0.50;99.90;;;;;;4962447;28;20044;-82
2024/03/20 05:01:46;;;;;;;49.28;17.75;;;0.90;99.90;;;;;;4935202;28;20059;-81
2024/03/20 05:04:14;;;;;;;40.60;16.90;;;0.90;99.90;;;;;;4929495;29;20067;-81
2024/03/20 05:06:41;;;;;;;38.65;15.60;;;2.50;99.90;;;;;;4943017;28;20047;-83
2024/03/20 05:09:09;;;;;;;39.83;17.70;;;0.90;99.90;;;;;;4927543;28;20498;-83
2024/03/20 05:11:37;;;;;;;43.92;17.15;;;1.40;99.90;;;;;;4937115;28;20047;-82
2024/03/20 05:14:06;;;;;;;43.20;15.48;;;1.40;99.90;;;;;;4945306;28;20072;-83
2024/03/20 05:16:33;;;;;;;41.17;15.40;;;0.10;99.90;;;;;;4935913;28;20054;-84
2024/03/20 05:19:01;;;;;;;43.53;17.02;;;1.00;99.90;;;;;;4948729;28;20075;-84
2024/03/20 05:21:28;;;;;;;46.90;18.98;;;0.40;99.90;;;;;;4939457;29;20489;-82
2024/03/20 05:23:55;;;;;;;50.22;19.27;;;1.00;99.90;;;;;;4952082;28;20062;-81
2024/03/20 05:26:23;;;;;;;47.83;19.38;;;2.10;99.90;;;;;;4921135;28;20175;-82
2024/03/20 05:28:50;;;;;;;49.05;20.27;;;0.90;99.90;;;;;;4931477;28;20094;-81
2024/03/20 05:31:28;;;;;;;49.97;19.17;;;0.90;99.90;;;;;;4933695;28;20588;-80
2024/03/20 05:33:55;;;;;;;57.78;20.73;;;0.90;99.90;;;;;;4930411;29;20154;-82
2024/03/20 05:36:23;;;;;;;50.83;17.58;;;0.90;99.90;;;;;;4951619;28;20430;-81
2024/03/20 05:38:50;;;;;;;42.53;17.58;;;1.00;99.90;;;;;;4938373;28;20067;-78
2024/03/20 05:41:17;;;;;;;50.47;18.67;;;1.00;99.90;;;;;;4935895;29;20071;-82
2024/03/20 05:43:44;;;;;;;40.38;16.58;;;1.10;99.90;;;;;;4934991;29;20131;-82
2024/03/20 05:46:12;;;;;;;41.33;16.25;;;1.10;99.90;;;;;;4934501;28;20047;-81
2024/03/20 05:48:42;;;;;;;46.30;18.63;;;1.20;99.90;;;;;;4935478;28;20043;-80
2024/03/20 05:51:10;;;;;;;52.10;19.52;;;1.20;99.90;;;;;;4961014;28;20099;-81
2024/03/20 05:53:36;;;;;;;46.47;18.88;;;1.20;99.90;;;;;;4923280;28;20043;-80
2024/03/20 05:56:04;;;;;;;52.55;20.75;;;0.20;99.90;;;;;;4955324;28;20483;-79
2024/03/20 05:58:31;;;;;;;50.60;19.40;;;1.30;99.90;;;;;;4949399;28;20039;-79
2024/03/20 06:00:58;;;;;;;53.05;19.50;;;1.40;99.90;;;;;;4939074;28;20047;-80
2024/03/20 06:03:25;;;;;;;50.25;20.48;;;1.80;99.90;;;;;;4932281;28;20050;-78
2024/03/20 06:05:54;;;;;;;49.40;18.63;;;1.50;99.90;;;;;;4943725;28;20054;-79
2024/03/20 06:08:21;;;;;;;50.63;19.95;;;2.20;99.90;;;;;;4927175;28;20058;-80
2024/03/20 06:10:51;;;;;;;49.47;19.95;;;1.80;99.90;;;;;;4927918;29;20031;-78
2024/03/20 06:13:18;;;;;;;49.22;19.40;;;1.80;99.90;;;;;;4930448;28;20573;-78
2024/03/20 06:15:46;;;;;;;51.03;19.73;;;1.90;99.90;;;;;;4940281;28;20052;-79
2024/03/20 06:18:13;;;;;;;55.55;21.48;;;2.00;99.90;;;;;;4927233;29;20072;-79
2024/03/20 06:20:40;;;;;;;57.10;23.15;;;2.10;99.90;;;;;;4943049;28;20510;-79
2024/03/20 06:23:08;;;;;;;61.85;23.90;;;2.10;99.90;;;;;;4929609;28;20055;-79
2024/03/20 06:25:36;;;;;;;60.80;22.85;;;2.20;99.90;;;;;;4928230;28;20054;-78
2024/03/20 06:28:02;;;;;;;69.35;26.52;;;2.40;99.90;;;;;;4946716;28;20031;-79
2024/03/20 06:30:30;;;;;;;80.20;28.73;;;2.50;99.90;;;;;;4931757;28;20054;-79
2024/03/20 06:32:57;;;;;;;82.47;27.38;;;2.50;99.90;;;;;;4948544;28;20047;-79
2024/03/20 06:35:24;;;;;;;83.35;31.70;;;2.60;99.90;;;;;;4929622;28;20043;-80
2024/03/20 06:37:50;;;;;;;83.72;32.45;;;2.70;99.90;;;;;;4928210;28;20060;-79
2024/03/20 06:40:19;;;;;;;70.97;29.50;;;2.80;99.90;;;;;;4940257;28;20502;-78
2024/03/20 06:42:46;;;;;;;75.32;27.15;;;3.00;99.90;;;;;;4919335;29;20099;-79
2024/03/20 06:45:13;;;;;;;72.93;26.50;;;3.10;99.90;;;;;;4942149;28;20125;-79
2024/03/20 06:47:41;;;;;;;68.32;28.33;;;3.20;99.90;;;;;;4923394;29;20051;-79
2024/03/20 06:50:09;;;;;;;70.70;27.63;;;3.30;99.90;;;;;;4928149;28;20138;-78
2024/03/20 06:52:38;;;;;;;66.63;27.13;;;3.30;99.90;;;;;;4929786;28;20062;-80
2024/03/20 06:55:14;;;;;;;69.88;27.10;;;3.40;99.90;;;;;;4928415;28;20047;-80
2024/03/20 06:57:42;;;;;;;60.40;24.83;;;3.60;99.90;;;;;;4932834;28;20056;-79
2024/03/20 07:00:17;;;;;;;62.33;24.88;;;3.70;99.90;;;;;;4932521;28;20058;-79
2024/03/20 07:02:44;;;;;;;58.90;23.90;;;3.80;99.90;;;;;;4928310;29;20051;-80
2024/03/20 07:05:14;;;;;;;47.88;21.08;;;3.90;99.90;;;;;;4938027;29;20055;-81
2024/03/20 07:07:42;;;;;;;49.47;20.30;;;4.10;99.90;;;;;;4932314;28;20051;-80
2024/03/20 07:10:10;;;;;;;47.40;19.10;;;4.20;99.90;;;;;;4929500;28;20798;-79
2024/03/20 07:12:37;;;;;;;48.72;19.42;;;4.30;99.90;;;;;;4960075;28;20109;-79
2024/03/20 07:15:09;;;;;;;45.40;18.92;;;4.50;99.90;;;;;;4925019;29;20447;-79
2024/03/20 07:17:36;;;;;;;40.53;16.85;;;4.60;99.90;;;;;;4926446;28;20502;-78
2024/03/20 07:20:07;;;;;;;41.83;19.02;;;4.80;99.90;;;;;;4938263;28;20043;-77
2024/03/20 07:22:33;;;;;;;45.58;17.13;;;4.90;99.90;;;;;;4931899;29;20047;-79
2024/03/20 07:25:01;;;;;;;47.22;20.23;;;5.10;99.90;;;;;;4943955;28;20612;-77
2024/03/20 07:27:28;;;;;;;45.08;19.42;;;5.20;99.90;;;;;;4928056;28;20178;-79
2024/03/20 07:29:55;;;;;;;39.30;16.80;;;5.30;99.90;;;;;;4962365;28;20046;-79
2024/03/20 07:32:23;;;;;;;32.30;13.88;;;5.50;99.90;;;;;;4937873;29;20060;-79
2024/03/20 07:34:50;;;;;;;33.63;13.77;;;5.50;99.90;;;;;;4904606;29;20052;-79
2024/03/20 07:37:17;;;;;;;33.47;14.48;;;5.50;99.90;;;;;;4923113;29;20099;-78
2024/03/20 07:39:44;;;;;;;40.50;15.00;;;5.60;99.90;;;;;;4909283;29;20054;-80
2024/03/20 07:42:11;;;;;;;37.05;13.88;;;5.80;99.90;;;;;;4912948;29;20094;-79
2024/03/20 07:44:38;;;;;;;32.30;15.18;;;5.70;99.90;;;;;;4910940;29;20051;-80
2024/03/20 07:47:05;;;;;;;39.03;16.13;;;5.80;99.90;;;;;;4928329;28;20058;-79
2024/03/20 07:49:34;;;;;;;36.38;16.30;;;6.00;99.90;;;;;;4909959;29;20127;-78
2024/03/20 07:52:00;;;;;;;38.83;16.13;;;6.10;99.90;;;;;;4942578;28;20078;-78
2024/03/20 07:54:28;;;;;;;41.67;17.50;;;6.40;99.90;;;;;;4909403;29;20055;-79
2024/03/20 07:56:55;;;;;;;42.53;17.85;;;6.50;99.90;;;;;;4919796;29;20044;-82
2024/03/20 07:59:24;;;;;;;34.90;14.27;;;6.60;99.90;;;;;;4897338;29;20122;-80
2024/03/20 08:01:52;;;;;;;36.80;15.00;;;6.30;99.90;;;;;;4888948;29;20517;-79
2024/03/20 08:04:19;;;;;;;35.30;14.00;;;6.60;99.90;;;;;;4908613;29;20297;-78
2024/03/20 08:06:47;;;;;;;35.92;15.70;;;6.60;99.90;;;;;;4912374;29;21699;-80
2024/03/20 08:09:16;;;;;;;38.35;15.77;;;6.70;99.90;;;;;;4912713;29;20128;-77
2024/03/20 08:11:42;;;;;;;34.17;14.88;;;6.80;99.90;;;;;;4912420;29;20047;-79
2024/03/20 08:14:09;;;;;;;34.55;14.50;;;7.00;99.90;;;;;;4929935;29;20148;-79
2024/03/20 08:16:36;;;;;;;34.17;13.23;;;7.10;99.60;;;;;;4926670;29;20056;-79
2024/03/20 08:19:03;;;;;;;34.33;16.65;;;7.10;99.00;;;;;;4930654;29;20044;-80
2024/03/20 08:21:30;;;;;;;27.30;12.02;;;7.20;99.10;;;;;;4911536;29;20043;-79
2024/03/20 08:23:59;;;;;;;32.40;13.20;;;7.40;98.10;;;;;;4907785;29;20036;-78
2024/03/20 08:26:25;;;;;;;29.60;11.95;;;7.50;98.10;;;;;;4913660;29;20061;-79
2024/03/20 08:28:53;;;;;;;31.58;12.95;;;7.60;97.40;;;;;;4911248;29;21202;-79
2024/03/20 08:31:19;;;;;;;60.83;24.88;;;7.80;96.60;;;;;;4928755;29;20048;-79
2024/03/20 08:33:47;;;;;;;56.85;20.75;;;8.00;96.50;;;;;;4930483;28;20066;-78
2024/03/20 08:36:13;;;;;;;29.75;12.52;;;8.10;95.80;;;;;;4948162;28;20501;-79
2024/03/20 08:38:41;;;;;;;33.13;12.95;;;8.20;95.00;;;;;;4931109;28;20548;-80
2024/03/20 08:41:08;;;;;;;30.27;15.05;;;8.30;94.60;;;;;;4930985;29;20114;-79
2024/03/20 08:43:36;;;;;;;29.67;13.40;;;8.40;93.90;;;;;;4912136;28;20058;-78
2024/03/20 08:46:08;;;;;;;35.75;15.75;;;8.40;92.80;;;;;;4918919;28;20094;-78
2024/03/20 08:48:36;;;;;;;31.65;13.45;;;8.40;92.80;;;;;;4930312;28;20063;-78
2024/03/20 08:51:02;;;;;;;35.22;14.20;;;8.40;91.40;;;;;;4930169;29;20090;-78
2024/03/20 08:53:31;;;;;;;24.20;10.80;;;8.40;91.40;;;;;;4948505;28;20438;-79
2024/03/20 08:55:58;;;;;;;24.50;10.75;;;8.70;91.40;;;;;;4945604;28;20051;-79
2024/03/20 08:58:27;;;;;;;27.23;12.00;;;8.90;90.80;;;;;;4961125;28;20050;-78
2024/03/20 09:00:54;;;;;;;28.92;10.70;;;8.90;90.40;;;;;;4927228;29;20050;-79
2024/03/20 09:03:21;;;;;;;22.63;8.77;;;9.10;91.70;;;;;;4929806;28;20051;-79
2024/03/20 09:05:48;;;;;;;23.10;9.48;;;9.00;89.10;;;;;;4943857;28;20059;-78
2024/03/20 09:08:15;;;;;;;28.55;10.35;;;9.20;89.50;;;;;;4943968;28;20035;-77
2024/03/20 09:10:41;;;;;;;23.70;9.40;;;9.20;87.20;;;;;;4943395;28;20434;-78
2024/03/20 09:13:09;;;;;;;21.65;9.85;;;9.20;88.50;;;;;;4941233;28;20036;-79
2024/03/20 09:15:37;;;;;;;18.38;8.93;;;9.40;87.40;;;;;;4932489;28;20043;-78
2024/03/20 09:18:04;;;;;;;20.20;7.82;;;9.50;87.90;;;;;;4938373;28;20148;-79
2024/03/20 09:20:31;;;;;;;21.50;8.40;;;9.70;87.60;;;;;;4938402;28;20047;-79
2024/03/20 09:23:01;;;;;;;21.85;8.80;;;9.60;87.60;;;;;;4935702;28;20512;-76
2024/03/20 09:25:27;;;;;;;21.60;7.40;;;9.50;84.80;;;;;;4936405;28;20048;-76
2024/03/20 09:27:55;;;;;;;16.65;7.43;;;9.60;87.40;;;;;;4954884;28;20055;-78
2024/03/20 09:30:21;;;;;;;18.30;8.43;;;9.80;85.30;;;;;;4957026;28;20411;-77
2024/03/20 09:32:50;;;;;;;19.05;8.10;;;10.00;83.60;;;;;;4926756;28;20463;-79
2024/03/20 09:35:16;;;;;;;17.95;7.70;;;9.90;82.50;;;;;;4944749;28;20564;-78
2024/03/20 09:37:44;;;;;;;18.55;8.52;;;10.00;83.80;;;;;;4923628;28;20043;-78
2024/03/20 09:40:11;;;;;;;16.90;7.38;;;10.20;84.40;;;;;;4960781;28;20058;-79
2024/03/20 09:42:40;;;;;;;19.83;7.75;;;10.20;84.20;;;;;;4926102;28;20514;-79
2024/03/20 09:45:09;;;;;;;20.00;9.27;;;10.30;81.10;;;;;;4913122;29;20036;-77
2024/03/20 09:47:38;;;;;;;17.02;7.35;;;10.20;78.50;;;;;;4935132;29;20475;-79
2024/03/20 09:50:12;;;;;;;17.42;6.88;;;10.40;81.20;;;;;;4926989;29;20051;-79
2024/03/20 09:52:43;;;;;;;14.40;6.90;;;10.40;79.40;;;;;;4929365;28;20498;-74
2024/03/20 09:55:14;;;;;;;16.63;9.07;;;10.60;81.20;;;;;;4936699;28;21167;-74
2024/03/20 09:57:44;;;;;;;14.10;6.97;;;10.40;78.50;;;;;;4927747;29;20039;-74
2024/03/20 10:00:14;;;;;;;15.70;6.45;;;10.40;78.00;;;;;;4927182;28;20047;-74
2024/03/20 10:02:44;;;;;;;16.60;6.68;;;10.60;78.30;;;;;;4908531;29;20107;-74
2024/03/20 10:05:12;;;;;;;15.85;7.15;;;10.90;77.60;;;;;;4938436;28;20089;-73
2024/03/20 10:07:41;;;;;;;18.00;7.35;;;11.00;78.50;;;;;;4920025;28;20055;-74
2024/03/20 10:10:12;;;;;;;14.32;6.82;;;11.10;78.30;;;;;;4943001;28;20055;-74
2024/03/20 10:12:40;;;;;;;18.30;8.27;;;10.80;76.50;;;;;;4912701;28;20043;-75
2024/03/20 10:15:07;;;;;;;16.83;7.70;;;10.60;78.50;;;;;;4938772;28;20036;-73
2024/03/20 10:17:36;;;;;;;18.52;8.35;;;10.90;78.50;;;;;;4929347;29;20039;-75
2024/03/20 10:20:14;;;;;;;17.80;8.18;;;11.00;78.50;;;;;;4925533;28;20048;-73
2024/03/20 10:22:45;;;;;;;17.95;7.53;;;11.00;77.30;;;;;;4941101;28;20058;-74
2024/03/20 10:25:16;;;;;;;14.48;7.00;;;11.20;77.90;;;;;;4955321;28;20396;-74
2024/03/20 10:27:46;;;;;;;16.33;7.20;;;11.20;76.50;;;;;;4938528;28;20046;-74
2024/03/20 10:30:15;;;;;;;15.55;7.03;;;11.30;78.40;;;;;;4946757;28;20161;-73
2024/03/20 10:32:48;;;;;;;16.52;6.72;;;11.40;78.40;;;;;;4914877;29;20080;-73
2024/03/20 10:35:15;;;;;;;;;;;11.40;77.20;;;;;;4942115;28;20051;-74
2024/03/20 10:37:47;;;;;;;18.08;8.13;;;11.50;76.80;;;;;;4923263;29;19972;-74
2024/03/20 10:40:16;;;;;;;16.45;8.25;;;11.30;75.90;;;;;;4935229;28;20056;-74
2024/03/20 10:42:46;;;;;;;17.70;7.13;;;11.20;77.50;;;;;;4930722;29;20102;-73
2024/03/20 10:45:13;;;;;;;17.23;7.72;;;11.30;77.90;;;;;;4924003;28;20039;-74
2024/03/20 10:47:42;;;;;;;16.02;6.55;;;11.50;79.10;;;;;;4922142;29;20060;-74
2024/03/20 10:50:14;;;;;;;14.73;7.03;;;11.70;77.70;;;;;;4926978;28;20051;-74
2024/03/20 10:52:43;;;;;;;16.02;7.28;;;11.60;76.40;;;;;;4955852;28;20051;-75
2024/03/20 10:55:12;;;;;;;17.83;7.63;;;11.80;75.70;;;;;;4923545;29;20091;-74
2024/03/20 10:57:40;;;;;;;16.13;8.05;;;11.70;76.00;;;;;;4939422;28;20067;-75
2024/03/20 11:00:16;;;;;;;16.45;8.45;;;11.90;77.10;;;;;;4939389;28;20094;-74
2024/03/20 11:02:45;;;;;;;17.60;7.15;;;11.70;75.10;;;;;;4940964;28;20097;-81
2024/03/20 11:05:35;;;;;;;14.90;6.45;;;11.90;75.70;;;;;;4927933;29;20562;-78
2024/03/20 11:08:04;;;;;;;16.00;5.72;;;11.90;74.30;;;;;;4928484;29;20053;-81
2024/03/20 11:10:31;;;;;;;14.32;6.82;;;12.10;76.20;;;;;;4930340;28;20048;-80
2024/03/20 11:12:59;;;;;;;16.85;6.28;;;12.40;75.50;;;;;;4944766;28;20061;-80
2024/03/20 11:15:27;;;;;;;16.70;9.15;;;12.30;73.60;;;;;;4950933;28;20040;-78
2024/03/20 11:17:55;;;;;;;20.08;11.98;;;12.50;74.40;;;;;;4943680;29;20054;-79
2024/03/20 11:20:42;;;;;;;20.33;11.23;;;12.10;71.20;;;;;;4959238;28;20123;-83
2024/03/20 11:23:22;;;;;;;15.02;6.80;;;11.90;72.80;;;;;;4945841;28;20059;-82
2024/03/20 11:25:50;;;;;;;13.95;6.22;;;12.40;74.30;;;;;;4924656;29;20066;-76
2024/03/20 11:28:19;;;;;;;16.48;6.88;;;12.40;73.50;;;;;;4924765;29;20116;-80
2024/03/20 11:30:49;;;;;;;14.38;6.25;;;12.50;72.60;;;;;;4945387;28;20046;-81
2024/03/20 11:33:17;;;;;;;15.82;6.70;;;12.40;71.60;;;;;;4944226;28;20059;-80
2024/03/20 11:35:47;;;;;;;16.48;7.70;;;12.50;72.60;;;;;;4937958;29;20086;-79
2024/03/20 11:38:18;;;;;;;16.73;6.63;;;12.60;72.30;;;;;;4931352;29;20055;-79
2024/03/20 11:40:45;;;;;;;15.02;7.03;;;12.60;74.00;;;;;;4944930;28;20067;-82
2024/03/20 11:43:14;;;;;;;14.60;6.65;;;12.80;73.00;;;;;;4940176;28;20102;-82
2024/03/20 11:45:41;;;;;;;14.10;6.85;;;12.90;73.50;;;;;;4934841;28;20044;-80
2024/03/20 11:48:10;;;;;;;17.95;7.25;;;13.20;74.00;;;;;;4939265;29;20264;-82
2024/03/20 11:50:36;;;;;;;14.68;6.63;;;12.80;71.50;;;;;;4955279;28;20075;-81
2024/03/20 11:53:06;;;;;;;16.42;6.93;;;12.70;71.50;;;;;;4938725;28;20490;-79
2024/03/20 11:55:34;;;;;;;16.70;7.05;;;12.90;73.60;;;;;;4955950;28;20047;-81
2024/03/20 11:58:03;;;;;;;15.98;7.32;;;12.70;71.00;;;;;;4949070;28;20055;-82
2024/03/20 12:00:32;;;;;;;16.80;7.85;;;12.80;70.60;;;;;;4937694;28;20075;-81
2024/03/20 12:03:00;;;;;;;13.15;7.20;;;13.10;72.00;;;;;;4953291;28;20054;-84
2024/03/20 12:05:27;;;;;;;12.85;6.55;;;13.00;68.60;;;;;;4938903;29;20039;-81
2024/03/20 12:07:56;;;;;;;22.88;10.38;;;13.20;70.30;;;;;;4959451;28;20190;-80
2024/03/20 12:10:31;;;;;;;15.88;7.88;;;13.00;69.80;;;;;;4964991;28;20047;-81
2024/03/20 12:12:59;;;;;;;17.23;8.13;;;13.00;69.30;;;;;;4966744;28;20533;-81
2024/03/20 12:15:27;;;;;;;15.40;7.20;;;13.00;68.50;;;;;;4933613;28;20044;-80
2024/03/20 12:17:56;;;;;;;18.00;7.95;;;13.10;70.00;;;;;;4927977;29;20051;-81
2024/03/20 12:20:23;;;;;;;13.77;7.60;;;13.30;70.50;;;;;;4932940;29;20044;-84
2024/03/20 12:22:50;;;;;;;16.55;7.68;;;13.40;69.80;;;;;;4949635;28;20148;-78
2024/03/20 12:25:17;;;;;;;15.23;7.95;;;13.30;69.70;;;;;;4946020;28;20047;-81
2024/03/20 12:27:44;;;;;;;16.50;8.23;;;13.30;70.80;;;;;;4924935;29;20106;-82
2024/03/20 12:30:12;;;;;;;20.75;8.30;;;13.40;70.30;;;;;;4947730;28;20095;-80
2024/03/20 12:32:40;;;;;;;17.52;7.82;;;13.50;70.60;;;;;;4940309;28;20055;-79
2024/03/20 12:35:09;;;;;;;19.98;8.90;;;13.50;70.10;;;;;;4946188;28;20039;-80
2024/03/20 12:37:37;;;;;;;18.50;8.18;;;13.50;70.30;;;;;;4943064;29;20040;-82
2024/03/20 12:40:05;;;;;;;15.27;7.60;;;13.60;69.70;;;;;;4937035;28;20044;-78
2024/03/20 12:42:33;;;;;;;21.40;8.43;;;13.50;69.30;;;;;;4937716;28;20054;-80